Time;durP1;ratioP1;P1;durP2;ratioP2;P2;SDS_P1;SDS_P2;PMS_P1;PMS_P2;Temp;Humidity;BMP_temperature;BMP_pressure;BME280_temperature;BME280_humidity;BME280_pressure;Samples;Min_cycle;Max_cycle;Signal;HPM_P1;HPM_P2
2022/06/13 00:01:21;;;;;;;7.90;1.80;;;;;;;25.99;37.30;100078.66;4927901;28;20380;-87
2022/06/13 00:03:49;;;;;;;3.28;1.67;;;;;;;26.03;37.58;100072.75;4947238;28;20054;-88
2022/06/13 00:06:16;;;;;;;3.55;1.50;;;;;;;26.01;37.46;100062.09;4963052;28;20171;-85
2022/06/13 00:08:43;;;;;;;4.95;1.70;;;;;;;25.98;37.44;100057.97;4928434;28;20061;-85
2022/06/13 00:11:14;;;;;;;5.55;1.73;;;;;;;25.95;37.74;100052.13;4913205;28;20051;-85
2022/06/13 00:13:42;;;;;;;4.20;1.52;;;;;;;25.92;37.92;100049.88;4968213;28;20097;-91
2022/06/13 00:16:11;;;;;;;4.78;1.88;;;;;;;25.90;37.70;100058.28;4935276;28;20057;-90
2022/06/13 00:18:38;;;;;;;2.63;1.45;;;;;;;25.91;37.37;100053.66;4927362;28;20054;-90
2022/06/13 00:21:05;;;;;;;10.57;2.17;;;;;;;25.91;37.25;100065.38;4930430;28;20066;-91
2022/06/13 00:23:37;;;;;;;4.53;1.70;;;;;;;25.88;37.09;100073.19;4931120;28;20402;-90
2022/06/13 00:26:04;;;;;;;4.40;1.80;;;;;;;25.86;37.29;100072.56;4942489;28;20129;-90
2022/06/13 00:28:30;;;;;;;2.95;1.73;;;;;;;25.85;37.24;100070.91;4967695;28;20082;-91
2022/06/13 00:30:57;;;;;;;5.70;2.10;;;;;;;25.87;37.15;100071.50;4938471;28;20043;-90
2022/06/13 00:37:57;;;;;;;4.38;1.58;;;;;;;25.82;37.16;100052.28;4958277;28;20077;-90
2022/06/13 00:40:24;;;;;;;5.18;1.67;;;;;;;25.77;37.13;100058.41;4923815;28;20046;-90
2022/06/13 00:42:51;;;;;;;4.40;1.63;;;;;;;25.57;36.98;100047.81;4951262;28;20150;-90
2022/06/13 00:45:20;;;;;;;3.45;1.70;;;;;;;25.50;37.33;100055.22;4951634;28;20043;-90
2022/06/13 00:47:54;;;;;;;2.47;1.52;;;;;;;25.39;37.36;100065.00;4957379;28;20042;-90
2022/06/13 00:54:51;;;;;;;3.03;1.75;;;;;;;25.22;38.52;100051.16;4965449;28;20038;-91
2022/06/13 00:57:20;;;;;;;4.72;1.70;;;;;;;25.18;38.48;100044.50;4961112;28;20053;-89
2022/06/13 00:59:49;;;;;;;4.03;2.00;;;;;;;25.13;38.32;100037.00;4948529;28;20050;-91
2022/06/13 01:02:16;;;;;;;4.53;1.65;;;;;;;25.13;38.51;100033.47;4985715;28;20125;-91
2022/06/13 01:04:43;;;;;;;3.97;2.22;;;;;;;25.09;38.72;100037.72;4930420;28;20042;-90
2022/06/13 01:07:10;;;;;;;4.75;2.40;;;;;;;25.06;38.85;100038.13;4938689;28;20047;-91
2022/06/13 01:12:25;;;;;;;6.88;2.28;;;;;;;25.00;38.83;100037.16;4915456;28;20392;-91
2022/06/13 01:15:19;;;;;;;4.85;2.28;;;;;;;24.97;39.09;100032.19;4935812;28;20098;-91
2022/06/13 01:17:52;;;;;;;4.45;1.48;;;;;;;24.95;38.97;100038.91;4951996;28;20057;-91
2022/06/13 01:20:33;;;;;;;5.32;2.17;;;;;;;24.92;38.74;100038.28;4971985;28;20050;-91
2022/06/13 01:23:34;;;;;;;2.38;1.70;;;;;;;24.89;38.70;100049.59;4980988;28;20114;-91
2022/06/13 01:26:14;;;;;;;4.97;1.85;;;;;;;24.87;38.14;100046.28;4934645;28;20042;-90
2022/06/13 01:29:04;;;;;;;4.55;1.95;;;;;;;24.84;38.26;100051.34;4953784;28;20046;-91
2022/06/13 01:31:46;;;;;;;4.43;1.95;;;;;;;24.79;38.47;100049.28;4955645;28;20043;-91
2022/06/13 01:34:35;;;;;;;5.55;2.03;;;;;;;24.77;38.62;100051.38;4932471;28;20142;-90
2022/06/13 01:41:17;;;;;;;4.78;1.73;;;;;;;24.69;39.10;100055.22;4961437;28;20486;-92
2022/06/13 01:43:54;;;;;;;7.40;2.03;;;;;;;24.66;39.56;100055.69;4956726;28;20422;-92
2022/06/13 01:46:21;;;;;;;4.00;1.90;;;;;;;24.65;40.29;100056.75;4963837;28;20043;-91
2022/06/13 01:49:07;;;;;;;8.30;2.00;;;;;;;24.62;41.03;100064.47;4975677;28;20046;-90
2022/06/13 01:51:43;;;;;;;5.28;2.22;;;;;;;24.60;41.01;100063.88;4934993;28;20042;-90
2022/06/13 01:58:45;;;;;;;5.40;2.10;;;;;;;24.55;42.25;100050.13;4967332;28;20023;-90
2022/06/13 02:01:27;;;;;;;5.63;2.10;;;;;;;24.52;42.00;100051.41;4950012;28;20116;-90
2022/06/13 02:04:07;;;;;;;6.53;2.30;;;;;;;24.48;42.05;100056.47;4904774;28;20138;-90
2022/06/13 02:06:38;;;;;;;3.13;2.00;;;;;;;24.44;41.42;100051.66;4891277;28;20044;-92
2022/06/13 02:09:18;;;;;;;7.55;1.88;;;;;;;24.43;41.22;100058.16;4912005;28;20082;-91
2022/06/13 02:11:50;;;;;;;4.80;1.80;;;;;;;24.38;40.32;100056.09;4911121;28;20055;-90
2022/06/13 02:14:22;;;;;;;4.88;1.70;;;;;;;24.21;37.43;100054.97;4944038;28;20055;-91
2022/06/13 02:17:12;;;;;;;5.65;2.00;;;;;;;24.23;38.70;100061.84;4928329;28;20517;-92
2022/06/13 02:19:45;;;;;;;6.28;2.03;;;;;;;24.23;39.05;100064.53;4921385;28;20072;-91
2022/06/13 02:22:33;;;;;;;5.43;1.95;;;;;;;24.04;36.60;100057.34;4915492;28;20046;-91
2022/06/13 02:25:05;;;;;;;4.78;1.80;;;;;;;24.06;38.94;100066.13;4889635;28;20040;-91
2022/06/13 02:27:35;;;;;;;5.43;1.98;;;;;;;24.09;38.87;100062.13;4929007;28;20039;-85
2022/06/13 02:30:06;;;;;;;4.28;1.90;;;;;;;24.07;39.01;100058.81;4937267;28;20047;-86
2022/06/13 02:32:42;;;;;;;6.32;1.80;;;;;;;24.06;39.11;100052.56;4930370;28;20095;-86
2022/06/13 02:35:14;;;;;;;4.47;1.83;;;;;;;24.04;39.57;100060.94;4933020;28;20052;-85
2022/06/13 02:37:52;;;;;;;7.35;1.60;;;;;;;24.01;39.46;100047.78;4975832;28;20791;-85
2022/06/13 02:41:10;;;;;;;5.65;1.80;;;;;;;23.97;39.03;100051.16;4982174;28;20456;-86
2022/06/13 02:43:53;;;;;;;6.68;2.28;;;;;;;23.95;39.03;100058.69;4880366;28;20047;-87
2022/06/13 02:46:31;;;;;;;5.07;1.85;;;;;;;23.89;39.29;100059.53;4941752;28;20105;-87
2022/06/13 02:49:03;;;;;;;7.68;1.92;;;;;;;23.83;39.40;100055.81;4951998;28;20105;-87
2022/06/13 02:51:41;;;;;;;4.93;2.35;;;;;;;23.77;39.41;100062.94;4980353;28;20047;-88
2022/06/13 02:54:22;;;;;;;5.00;1.98;;;;;;;23.71;39.42;100050.25;4979295;28;20055;-89
2022/06/13 03:00:06;;;;;;;5.88;1.90;;;;;;;23.62;39.50;100052.34;4966460;28;20043;-89
2022/06/13 03:02:36;;;;;;;3.95;2.08;;;;;;;23.59;39.55;100049.25;4948541;28;20062;-89
2022/06/13 03:05:41;;;;;;;5.75;1.80;;;;;;;23.49;39.57;100057.84;4970415;28;20066;-85
2022/06/13 03:08:45;;;;;;;5.57;1.90;;;;;;;23.36;39.09;100055.19;4948014;28;20055;-86
2022/06/13 03:11:24;;;;;;;7.47;2.35;;;;;;;23.32;39.40;100072.91;4951624;28;20160;-84
2022/06/13 03:13:56;;;;;;;5.72;2.20;;;;;;;23.28;39.86;100068.94;4980007;28;20402;-87
2022/06/13 03:16:23;;;;;;;;;;;;;;;23.26;39.67;100071.06;4963855;28;20046;-87
2022/06/13 03:19:00;;;;;;;6.00;2.00;;;;;;;23.23;39.33;100082.31;4962286;28;20392;-88
2022/06/13 03:21:34;;;;;;;6.75;2.83;;;;;;;23.22;39.95;100072.53;4929831;28;20039;-83
2022/06/13 03:24:12;;;;;;;5.15;2.05;;;;;;;23.18;40.11;100077.53;4958106;28;20046;-82
2022/06/13 03:26:43;;;;;;;3.67;2.20;;;;;;;23.16;39.80;100085.88;4989482;28;20046;-82
2022/06/13 03:29:16;;;;;;;8.13;2.28;;;;;;;23.12;39.83;100089.22;4939300;28;20051;-82
2022/06/13 03:31:54;;;;;;;6.00;2.13;;;;;;;23.07;40.30;100087.13;4946508;28;20130;-82
2022/06/13 03:34:41;;;;;;;7.28;2.30;;;;;;;23.00;40.47;100090.91;4971010;28;20042;-82
2022/06/13 03:37:13;;;;;;;6.25;2.35;;;;;;;23.00;40.42;100097.16;4968929;28;20043;-82
2022/06/13 03:39:48;;;;;;;8.20;2.28;;;;;;;22.98;40.38;100093.84;4961865;28;20491;-82
2022/06/13 03:42:25;;;;;;;5.20;2.08;;;;;;;22.97;40.41;100097.56;4955979;28;20042;-82
2022/06/13 03:45:16;;;;;;;5.18;2.55;;;;;;;22.96;40.46;100094.00;4943400;28;20043;-80
2022/06/13 03:47:51;;;;;;;8.50;2.40;;;;;;;22.99;40.34;100097.38;4957826;28;20049;-81
2022/06/13 03:50:31;;;;;;;8.77;2.65;;;;;;;23.15;40.49;100107.75;4951248;28;20125;-80
2022/06/13 03:53:08;;;;;;;4.50;2.33;;;;;;;23.32;39.98;100108.13;4953229;28;20388;-82
2022/06/13 03:55:40;;;;;;;7.40;1.95;;;;;;;23.53;40.38;100109.72;4981700;28;20101;-89
2022/06/13 03:58:20;;;;;;;5.60;2.30;;;;;;;23.70;40.09;100110.09;4945008;28;20058;-88
2022/06/13 04:00:53;;;;;;;7.32;2.75;;;;;;;23.87;40.04;100108.59;4968894;28;21023;-89
2022/06/13 04:03:20;;;;;;;4.10;2.10;;;;;;;24.00;40.06;100107.69;4952083;28;20047;-85
2022/06/13 04:06:02;;;;;;;5.32;2.42;;;;;;;24.02;39.15;100117.28;4957222;28;20145;-85
2022/06/13 04:08:33;;;;;;;4.07;2.33;;;;;;;24.11;39.03;100114.31;4958001;28;20138;-83
2022/06/13 04:11:21;;;;;;;5.07;2.28;;;;;;;24.06;38.97;100120.38;4950292;28;20039;-83
2022/06/13 04:14:08;;;;;;;9.52;2.30;;;;;;;24.07;38.88;100121.19;4951536;28;20043;-85
2022/06/13 04:16:38;;;;;;;7.57;2.53;;;;;;;23.94;38.24;100125.66;4971254;28;20394;-85
2022/06/13 04:19:33;;;;;;;9.07;2.58;;;;;;;23.83;36.95;100124.44;4950330;28;20066;-88
2022/06/13 04:22:06;;;;;;;6.15;2.38;;;;;;;23.49;37.30;100128.31;4935532;28;20042;-88
2022/06/13 04:24:49;;;;;;;;;;;;;;;23.32;37.39;100141.47;4977919;28;20454;-87
2022/06/13 04:27:25;;;;;;;5.78;2.58;;;;;;;23.24;36.97;100135.47;4973222;28;19928;-82
2022/06/13 04:30:10;;;;;;;5.30;2.10;;;;;;;23.22;37.38;100143.78;4976870;28;20052;-82
2022/06/13 04:32:47;;;;;;;7.85;2.33;;;;;;;23.13;37.41;100139.66;4942726;28;20402;-82
2022/06/13 04:35:15;;;;;;;5.55;2.20;;;;;;;22.94;37.64;100146.69;4935618;28;20043;-82
2022/06/13 04:37:43;;;;;;;5.45;2.55;;;;;;;22.95;37.97;100142.97;4919070;28;20043;-82
2022/06/13 04:40:15;;;;;;;5.53;2.25;;;;;;;22.86;37.89;100145.03;4917612;28;20047;-81
2022/06/13 04:42:42;;;;;;;;;;;;;;;22.52;37.77;100146.91;4942657;28;20042;-82
2022/06/13 04:45:22;;;;;;;4.35;2.00;;;;;;;22.49;37.96;100149.16;4946828;28;19929;-83
2022/06/13 04:47:52;;;;;;;8.02;2.38;;;;;;;22.45;37.89;100153.34;4949082;28;20138;-82
2022/06/13 04:50:37;;;;;;;12.27;2.55;;;;;;;22.35;38.24;100156.44;4943860;28;20152;-82
2022/06/13 04:53:06;;;;;;;4.78;2.03;;;;;;;22.31;38.09;100155.19;4945017;28;20057;-82
2022/06/13 04:55:41;;;;;;;5.70;1.85;;;;;;;22.39;38.23;100160.41;4937194;28;20042;-82
2022/06/13 04:58:26;;;;;;;8.43;2.38;;;;;;;22.30;38.25;100158.94;4963063;28;20073;-82
2022/06/13 05:01:06;;;;;;;7.60;2.22;;;;;;;22.37;38.70;100167.06;4928665;28;20399;-82
2022/06/13 05:03:37;;;;;;;6.93;2.60;;;;;;;22.11;38.41;100174.03;4960410;28;20495;-82
2022/06/13 05:06:20;;;;;;;7.57;2.17;;;;;;;22.03;38.62;100177.75;4937925;28;20055;-82
2022/06/13 05:08:53;;;;;;;6.80;2.08;;;;;;;22.07;38.47;100180.88;4976892;28;20130;-82
2022/06/13 05:11:27;;;;;;;4.88;2.33;;;;;;;22.09;38.53;100184.22;4950249;28;20047;-82
2022/06/13 05:14:05;;;;;;;5.32;1.90;;;;;;;22.05;38.83;100188.34;4938379;28;20055;-82
2022/06/13 05:16:42;;;;;;;6.97;2.72;;;;;;;22.03;38.35;100195.84;4930659;28;20082;-82
2022/06/13 05:19:19;;;;;;;5.15;1.83;;;;;;;22.01;38.58;100193.34;4979402;28;20487;-82
2022/06/13 05:22:10;;;;;;;5.25;1.90;;;;;;;22.01;38.45;100197.94;4981606;28;20048;-82
2022/06/13 05:25:03;;;;;;;6.07;2.22;;;;;;;21.92;38.13;100201.84;4943933;28;20144;-82
2022/06/13 05:27:30;;;;;;;;;;;;;;;21.95;38.71;100214.94;4935969;28;20100;-82
2022/06/13 05:29:56;;;;;;;4.38;2.15;;;;;;;21.91;38.79;100203.72;4969280;28;19922;-89
2022/06/13 05:32:23;;;;;;;5.70;2.10;;;;;;;21.93;38.96;100203.47;4965957;28;20066;-89
2022/06/13 05:34:51;;;;;;;5.78;2.13;;;;;;;21.98;39.26;100209.13;4968501;28;20819;-89
2022/06/13 05:37:18;;;;;;;5.47;1.92;;;;;;;22.01;38.89;100211.44;4949777;28;20130;-89
2022/06/13 05:39:45;;;;;;;5.47;2.28;;;;;;;22.16;39.08;100213.97;4957519;28;20043;-85
2022/06/13 05:42:13;;;;;;;3.90;2.05;;;;;;;22.35;38.62;100218.66;4967824;28;20124;-89
2022/06/13 05:44:43;;;;;;;7.40;2.13;;;;;;;22.40;38.42;100218.06;4953857;28;20038;-88
2022/06/13 05:47:16;;;;;;;5.30;1.77;;;;;;;22.32;38.53;100211.78;4949308;28;20050;-89
2022/06/13 05:49:44;;;;;;;7.47;2.20;;;;;;;22.37;38.31;100216.59;4942245;28;20676;-82
2022/06/13 05:52:11;;;;;;;3.38;1.90;;;;;;;22.38;38.45;100223.66;4979314;28;20046;-82
2022/06/13 05:54:38;;;;;;;4.78;2.00;;;;;;;22.22;38.52;100218.63;4934121;28;20046;-82
2022/06/13 05:57:05;;;;;;;6.82;1.98;;;;;;;22.28;39.28;100226.75;4934567;28;20183;-82
2022/06/13 05:59:32;;;;;;;3.78;1.77;;;;;;;22.17;39.17;100227.31;4950352;28;20093;-82
2022/06/13 06:01:58;;;;;;;7.03;2.30;;;;;;;22.27;39.18;100227.81;4969750;28;20383;-82
2022/06/13 06:04:25;;;;;;;8.30;2.60;;;;;;;22.47;38.70;100229.75;4954497;28;20050;-82
2022/06/13 06:06:52;;;;;;;6.65;2.10;;;;;;;22.19;39.47;100227.13;4933391;28;20116;-83
2022/06/13 06:09:19;;;;;;;7.60;2.45;;;;;;;22.17;39.41;100232.72;4932431;28;20059;-83
2022/06/13 06:11:46;;;;;;;7.50;2.22;;;;;;;22.25;39.55;100235.28;4944979;28;20402;-82
2022/06/13 06:14:13;;;;;;;3.83;2.10;;;;;;;22.33;39.29;100237.81;4953947;28;20055;-82
2022/06/13 06:16:39;;;;;;;8.05;2.47;;;;;;;22.31;39.00;100241.75;4947587;28;20058;-82
2022/06/13 06:19:07;;;;;;;5.88;2.30;;;;;;;22.41;39.36;100235.97;4950535;28;20047;-86
2022/06/13 06:21:34;;;;;;;5.03;1.90;;;;;;;22.36;39.07;100241.97;4932496;28;20055;-86
2022/06/13 06:24:01;;;;;;;6.70;2.20;;;;;;;22.37;38.73;100245.53;4930879;28;20046;-85
2022/06/13 06:26:27;;;;;;;7.38;2.75;;;;;;;22.33;38.85;100235.09;4930732;28;20046;-86
2022/06/13 06:28:55;;;;;;;5.93;2.10;;;;;;;22.29;38.78;100236.56;4937770;28;20046;-86
2022/06/13 06:31:22;;;;;;;6.63;1.98;;;;;;;22.44;39.01;100246.38;4948883;28;20078;-85
2022/06/13 06:33:49;;;;;;;3.50;1.90;;;;;;;22.59;38.60;100241.63;4968858;28;20439;-87
2022/06/13 06:36:16;;;;;;;4.47;1.63;;;;;;;22.60;38.33;100237.91;4931667;28;20050;-89
2022/06/13 06:38:43;;;;;;;3.25;2.08;;;;;;;22.52;38.44;100249.75;4931890;28;20458;-83
2022/06/13 06:41:10;;;;;;;5.70;2.05;;;;;;;22.48;38.59;100248.47;4969634;28;20502;-83
2022/06/13 06:43:37;;;;;;;10.27;2.28;;;;;;;22.39;38.58;100251.56;4951237;28;20051;-83
2022/06/13 06:46:04;;;;;;;6.47;2.03;;;;;;;22.41;38.85;100247.59;4932037;28;20047;-82
2022/06/13 06:48:32;;;;;;;6.25;2.03;;;;;;;22.33;38.80;100250.50;4937074;28;20106;-87
2022/06/13 06:50:58;;;;;;;4.95;2.22;;;;;;;22.47;38.83;100254.09;4932907;28;20046;-87
2022/06/13 06:53:26;;;;;;;5.40;2.08;;;;;;;22.46;38.76;100255.13;4947938;28;20110;-86
2022/06/13 07:01:27;;;;;;;8.02;2.03;;;;;;;22.31;38.37;100255.28;4957095;28;20047;-87
2022/06/13 07:03:54;;;;;;;5.78;1.98;;;;;;;22.35;38.62;100253.00;4967077;28;20050;-86
2022/06/13 07:06:20;;;;;;;8.18;2.35;;;;;;;22.25;38.46;100248.81;4982051;28;20122;-86
2022/06/13 07:08:47;;;;;;;4.45;2.78;;;;;;;22.27;38.69;100241.34;4947547;28;20050;-82
2022/06/13 07:14:05;;;;;;;4.72;1.88;;;;;;;22.42;38.61;100260.13;4954990;28;20042;-88
2022/06/13 07:16:32;;;;;;;7.32;2.17;;;;;;;22.40;38.76;100256.78;4951115;28;20038;-83
2022/06/13 07:18:59;;;;;;;5.28;2.30;;;;;;;22.44;38.09;100254.50;4967828;28;20042;-83
2022/06/13 07:21:26;;;;;;;9.10;2.47;;;;;;;22.40;38.75;100261.34;4948486;28;20503;-83
2022/06/13 07:23:54;;;;;;;5.53;2.40;;;;;;;22.48;38.36;100270.13;4933165;28;20047;-90
2022/06/13 07:26:22;;;;;;;7.32;2.60;;;;;;;22.54;39.04;100269.31;4942964;28;20968;-87
2022/06/13 07:28:55;;;;;;;6.95;2.28;;;;;;;22.63;38.57;100271.84;4916874;28;20046;-87
2022/06/13 07:31:27;;;;;;;4.75;1.90;;;;;;;22.66;38.51;100274.97;4944979;28;20046;-87
2022/06/13 07:33:55;;;;;;;10.02;2.67;;;;;;;22.61;38.14;100276.63;4914072;28;20122;-86
2022/06/13 07:36:22;;;;;;;6.72;2.58;;;;;;;22.65;38.06;100258.94;4948469;28;20082;-88
2022/06/13 07:38:49;;;;;;;5.60;2.33;;;;;;;22.71;38.55;100268.94;4934716;28;20418;-87
2022/06/13 07:41:20;;;;;;;7.80;2.50;;;;;;;22.62;38.09;100264.75;4969530;28;20610;-88
2022/06/13 07:43:47;;;;;;;7.90;2.30;;;;;;;22.40;38.39;100266.78;4977180;28;20504;-87
2022/06/13 07:46:13;;;;;;;4.15;2.33;;;;;;;22.47;38.94;100270.34;4971227;28;20061;-87
2022/06/13 07:48:41;;;;;;;4.93;2.30;;;;;;;22.62;38.87;100267.44;4964926;28;20123;-87
2022/06/13 07:51:09;;;;;;;7.53;1.95;;;;;;;22.78;38.38;100268.97;4938784;28;20125;-88
2022/06/13 07:53:35;;;;;;;9.30;2.92;;;;;;;22.82;37.72;100281.03;4991886;28;20042;-87
2022/06/13 07:56:24;;;;;;;6.05;2.30;;;;;;;22.90;37.79;100280.88;4944155;28;20055;-87
2022/06/13 07:58:52;;;;;;;4.88;2.10;;;;;;;23.02;37.74;100273.81;4949345;28;20043;-88
2022/06/13 08:01:19;;;;;;;7.32;2.38;;;;;;;22.89;38.09;100285.44;4951358;28;20051;-87
2022/06/13 08:03:46;;;;;;;7.72;2.30;;;;;;;22.77;37.79;100281.69;4951683;28;20097;-84
2022/06/13 08:06:14;;;;;;;7.45;2.60;;;;;;;22.84;38.18;100279.78;4936987;28;20109;-83
2022/06/13 08:08:41;;;;;;;8.80;2.80;;;;;;;22.96;38.64;100275.44;4953795;28;20169;-90
2022/06/13 08:11:09;;;;;;;4.63;2.42;;;;;;;23.04;38.22;100277.16;4947107;28;20047;-90
2022/06/13 08:13:38;;;;;;;6.40;2.30;;;;;;;23.03;38.13;100280.09;4931763;28;20047;-89
2022/06/13 08:16:06;;;;;;;9.18;2.75;;;;;;;22.91;38.67;100286.06;4950514;28;20120;-90
2022/06/13 08:18:33;;;;;;;9.85;2.50;;;;;;;22.93;38.47;100275.88;4953518;28;20156;-90
2022/06/13 08:21:00;;;;;;;5.88;2.20;;;;;;;22.92;38.38;100282.34;4931860;28;20066;-91
2022/06/13 08:23:27;;;;;;;8.65;2.10;;;;;;;22.97;39.16;100279.00;4933904;28;20070;-89
2022/06/13 08:25:54;;;;;;;8.20;2.50;;;;;;;23.06;39.05;100287.78;4924907;28;20049;-90
2022/06/13 08:28:22;;;;;;;7.97;2.70;;;;;;;23.07;38.29;100278.63;4940637;28;20047;-90
2022/06/13 08:31:06;;;;;;;5.03;2.50;;;;;;;22.90;37.67;100289.81;4942243;28;20055;-88
2022/06/13 08:33:33;;;;;;;9.10;2.65;;;;;;;22.90;37.92;100283.59;4919473;28;20045;-88
2022/06/13 08:36:00;;;;;;;9.45;2.70;;;;;;;23.03;38.50;100280.09;4969533;28;20682;-88
2022/06/13 08:38:27;;;;;;;9.93;2.38;;;;;;;23.19;38.21;100277.78;4966273;28;20078;-88
2022/06/13 08:41:20;;;;;;;4.88;2.47;;;;;;;23.31;38.25;100279.91;4920583;28;20097;-84
2022/06/13 08:44:16;;;;;;;11.20;3.03;;;;;;;23.41;38.07;100280.31;4945472;28;20520;-85
2022/06/13 08:47:20;;;;;;;14.07;3.00;;;;;;;23.04;36.90;100300.69;4905485;28;20097;-85
2022/06/13 08:50:16;;;;;;;12.43;2.90;;;;;;;22.93;37.65;100284.00;4916701;28;20038;-84
2022/06/13 08:52:48;;;;;;;6.80;2.53;;;;;;;23.09;38.19;100276.53;4988260;28;20494;-85
2022/06/13 08:55:42;;;;;;;8.65;2.42;;;;;;;22.97;37.16;100289.84;4969551;28;20046;-81
2022/06/13 08:58:22;;;;;;;10.18;3.08;;;;;;;22.99;37.60;100287.78;4958605;28;20047;-80
2022/06/13 09:00:55;;;;;;;5.15;2.40;;;;;;;23.10;37.36;100289.88;4968308;28;20049;-80
2022/06/13 09:03:24;;;;;;;;;;;;;;;23.14;36.68;100290.31;4968089;28;20050;-87
2022/06/13 09:06:03;;;;;;;6.10;2.38;;;;;;;23.08;36.58;100296.56;4993067;28;19922;-87
2022/06/13 09:08:49;;;;;;;6.15;2.28;;;;;;;23.04;37.10;100295.28;4952909;28;20113;-84
2022/06/13 09:11:20;;;;;;;7.72;2.45;;;;;;;23.26;37.06;100304.06;4954364;28;20126;-84
2022/06/13 09:14:21;;;;;;;6.70;2.38;;;;;;;23.32;37.00;100297.81;4934942;28;20058;-84
2022/06/13 09:17:04;;;;;;;6.13;2.25;;;;;;;23.09;36.18;100304.47;4949038;28;20039;-83
2022/06/13 09:19:43;;;;;;;5.82;2.20;;;;;;;23.06;36.71;100296.75;4970645;28;20045;-83
2022/06/13 09:22:35;;;;;;;6.35;2.40;;;;;;;23.04;36.61;100311.53;4933912;28;20411;-83
2022/06/13 09:25:06;;;;;;;8.00;2.17;;;;;;;23.10;36.36;100311.56;4917218;28;20680;-84
2022/06/13 09:27:43;;;;;;;5.45;2.20;;;;;;;23.10;35.73;100303.44;4961720;28;20457;-84
2022/06/13 09:30:14;;;;;;;4.40;1.90;;;;;;;23.28;36.32;100316.38;4930582;28;20047;-84
2022/06/13 09:32:49;;;;;;;4.78;1.80;;;;;;;23.36;34.87;100310.75;4933193;28;20043;-84
2022/06/13 09:35:20;;;;;;;7.65;2.03;;;;;;;23.53;35.66;100305.72;4964148;28;20061;-84
2022/06/13 09:37:52;;;;;;;4.30;1.98;;;;;;;23.69;35.08;100307.19;4967325;28;20046;-84
2022/06/13 09:40:26;;;;;;;7.28;1.90;;;;;;;23.68;34.70;100299.25;4964881;28;20129;-89
2022/06/13 09:43:06;;;;;;;8.48;1.90;;;;;;;23.58;32.87;100316.81;4934143;28;20049;-83
2022/06/13 09:45:49;;;;;;;7.38;2.00;;;;;;;23.54;33.23;100318.25;4960476;28;20383;-87
2022/06/13 09:48:32;;;;;;;4.22;1.83;;;;;;;23.56;33.29;100318.03;4978791;28;20050;-86
2022/06/13 09:51:03;;;;;;;5.50;2.10;;;;;;;23.64;33.82;100325.97;4970910;28;20410;-85
2022/06/13 09:53:39;;;;;;;8.23;1.98;;;;;;;23.68;33.11;100318.25;4967479;28;20042;-85
2022/06/13 09:56:27;;;;;;;12.52;2.30;;;;;;;23.74;33.45;100320.16;4970579;28;20050;-86
2022/06/13 09:58:53;;;;;;;9.57;2.50;;;;;;;23.85;33.84;100318.69;4955122;28;20034;-86
2022/06/13 10:01:34;;;;;;;8.25;2.25;;;;;;;23.91;33.97;100309.69;4951311;28;20058;-83
2022/06/13 10:04:08;;;;;;;6.43;2.45;;;;;;;24.05;34.03;100325.72;4970076;28;20051;-87
2022/06/13 10:06:56;;;;;;;4.70;2.50;;;;;;;23.96;32.60;100312.59;4982072;28;20397;-83
2022/06/13 10:09:38;;;;;;;10.82;2.90;;;;;;;23.52;33.09;100314.91;4962715;28;20047;-86
2022/06/13 10:12:29;;;;;;;6.25;2.45;;;;;;;23.47;34.19;100308.44;4964027;28;20553;-88
2022/06/13 10:15:23;;;;;;;6.35;2.38;;;;;;;23.56;34.79;100310.75;4931141;28;20540;-88
2022/06/13 10:18:09;;;;;;;6.05;2.33;;;;;;;23.66;34.04;100329.31;4942718;28;20038;-85
2022/06/13 10:20:43;;;;;;;18.48;3.47;;;;;;;23.61;33.55;100329.09;4914372;28;20569;-84
2022/06/13 10:23:25;;;;;;;7.82;2.40;;;;;;;23.55;31.93;100319.91;4952097;28;20053;-84
2022/06/13 10:26:14;;;;;;;7.95;2.15;;;;;;;23.46;33.34;100332.03;4966898;28;20046;-84
2022/06/13 10:28:50;;;;;;;4.93;2.15;;;;;;;23.67;33.72;100320.13;4935472;28;20043;-84
2022/06/13 10:31:41;;;;;;;5.47;2.35;;;;;;;23.72;33.27;100314.06;4991346;28;20038;-84
2022/06/13 10:34:08;;;;;;;5.65;2.28;;;;;;;23.80;33.78;100322.03;4933575;28;20070;-84
2022/06/13 10:36:39;;;;;;;5.03;2.55;;;;;;;23.70;33.44;100333.25;4979163;28;20444;-84
2022/06/13 10:39:11;;;;;;;6.28;2.13;;;;;;;23.78;33.47;100326.81;4987409;28;20450;-84
2022/06/13 10:41:41;;;;;;;4.13;2.05;;;;;;;23.92;32.89;100325.75;4956411;28;20057;-85
2022/06/13 10:44:11;;;;;;;4.93;2.17;;;;;;;23.96;33.23;100318.03;4931166;28;20058;-85
2022/06/13 10:47:07;;;;;;;4.40;1.98;;;;;;;23.96;33.01;100334.28;4958830;28;20069;-82
2022/06/13 10:49:45;;;;;;;7.82;2.03;;;;;;;23.94;32.89;100330.97;4933660;28;20124;-81
2022/06/13 10:52:15;;;;;;;7.00;2.05;;;;;;;23.81;33.20;100320.97;4964160;28;20046;-82
2022/06/13 10:54:56;;;;;;;5.78;2.05;;;;;;;23.49;33.04;100330.78;4951736;28;20046;-82
2022/06/13 10:57:37;;;;;;;6.60;2.10;;;;;;;23.51;33.15;100331.38;4952058;28;20073;-82
2022/06/13 11:00:25;;;;;;;14.77;2.58;;;;;;;23.51;31.99;100337.66;4926478;28;20054;-85
2022/06/13 11:03:17;;;;;;;7.03;2.13;;;;;;;23.44;32.00;100335.97;4968138;28;20126;-85
2022/06/13 11:05:55;;;;;;;3.53;1.70;;;;;;;23.59;31.32;100329.31;4962814;28;20066;-85
2022/06/13 11:08:22;;;;;;;3.92;1.85;;;;;;;23.76;32.61;100328.91;4963078;28;20763;-84
2022/06/13 11:11:15;;;;;;;6.28;1.83;;;;;;;23.57;30.65;100333.25;4946655;28;20093;-85
2022/06/13 11:13:43;;;;;;;8.18;2.20;;;;;;;23.72;32.31;100330.34;4935424;28;20495;-82
2022/06/13 11:24:53;;;;;;;8.88;1.90;;;;;;;24.00;31.07;100324.69;4937869;28;20053;-87
2022/06/13 11:27:40;;;;;;;3.00;1.80;;;;;;;23.94;30.45;100339.94;4941736;28;20608;-87
2022/06/13 11:30:25;;;;;;;5.78;1.90;;;;;;;23.80;29.22;100341.00;4952731;28;20151;-88
2022/06/13 11:33:03;;;;;;;6.22;2.30;;;;;;;23.92;30.32;100330.34;4939351;28;20055;-86
2022/06/13 11:35:41;;;;;;;3.22;2.10;;;;;;;24.10;30.75;100327.81;4943462;28;20407;-89
2022/06/13 11:38:33;;;;;;;5.40;2.30;;;;;;;24.23;30.38;100325.06;4928039;28;20155;-88
2022/06/13 11:41:17;;;;;;;5.40;2.00;;;;;;;24.30;29.30;100316.03;4927706;28;20035;-87
2022/06/13 11:43:45;;;;;;;9.30;2.22;;;;;;;24.23;30.38;100338.63;4912838;28;20259;-87
2022/06/13 11:46:27;;;;;;;7.10;2.10;;;;;;;24.01;31.33;100343.47;4957846;28;20098;-87
2022/06/13 11:48:55;;;;;;;5.73;2.00;;;;;;;23.81;30.90;100342.66;4935454;28;20055;-86
2022/06/13 11:51:25;;;;;;;6.88;2.42;;;;;;;23.87;31.14;100327.44;4964478;28;20057;-87
2022/06/13 11:53:53;;;;;;;4.78;2.10;;;;;;;23.83;31.75;100324.31;4988409;28;20428;-88
2022/06/13 11:56:29;;;;;;;8.07;2.42;;;;;;;23.96;31.12;100328.88;4976050;28;20486;-87
2022/06/13 11:59:01;;;;;;;4.60;2.22;;;;;;;24.04;31.18;100331.34;4946839;28;20050;-87
2022/06/13 12:01:37;;;;;;;6.47;2.50;;;;;;;24.09;31.17;100322.59;4934108;28;20094;-85
2022/06/13 12:04:13;;;;;;;4.13;2.33;;;;;;;24.19;30.84;100339.25;4940374;28;20675;-86
2022/06/13 12:06:46;;;;;;;5.10;1.80;;;;;;;24.19;30.59;100326.50;4949970;28;20498;-86
2022/06/13 12:09:31;;;;;;;3.38;1.73;;;;;;;24.33;30.67;100318.34;4949223;28;20049;-87
2022/06/13 12:12:04;;;;;;;8.85;2.55;;;;;;;24.40;30.49;100311.00;4958557;28;20414;-85
2022/06/13 12:14:36;;;;;;;3.90;2.05;;;;;;;24.42;29.94;100312.44;4926502;28;20126;-85
2022/06/13 12:17:30;;;;;;;6.23;1.93;;;;;;;24.23;29.07;100327.78;4954597;28;20051;-87
2022/06/13 12:20:19;;;;;;;4.82;2.10;;;;;;;23.93;28.27;100351.00;4929864;28;20453;-85
2022/06/13 12:22:53;;;;;;;4.38;1.88;;;;;;;23.97;28.94;100333.28;4962372;28;20630;-86
2022/06/13 12:25:24;;;;;;;3.60;1.85;;;;;;;24.00;29.36;100330.13;4963018;28;20058;-85
2022/06/13 12:27:56;;;;;;;5.18;2.38;;;;;;;24.01;29.75;100327.19;4976862;28;20046;-87
2022/06/13 12:30:51;;;;;;;10.38;2.78;;;;;;;24.14;30.01;100320.91;4978704;28;20396;-87
2022/06/13 12:33:54;;;;;;;5.82;2.20;;;;;;;24.24;30.52;100326.72;4994676;28;20057;-86
2022/06/13 12:36:39;;;;;;;9.10;2.80;;;;;;;24.42;30.54;100323.31;4936579;28;20062;-86
2022/06/13 12:39:18;;;;;;;15.20;3.45;;;;;;;24.51;29.89;100325.84;4970273;28;20104;-86
2022/06/13 12:42:10;;;;;;;19.42;3.28;;;;;;;24.53;29.78;100323.75;4978421;28;20057;-85
2022/06/13 12:45:03;;;;;;;7.80;1.95;;;;;;;24.63;29.99;100313.25;4960964;28;20457;-86